Time;durP1;ratioP1;P1;durP2;ratioP2;P2;SDS_P1;SDS_P2;PMS_P1;PMS_P2;Temp;Humidity;BMP_temperature;BMP_pressure;BME280_temperature;BME280_humidity;BME280_pressure;Samples;Min_cycle;Max_cycle;Signal;HPM_P1;HPM_P2
2022/08/22 00:00:46;;;;;;;4.00;3.47;;;;;;;;;;5060789;28;20279;-76
2022/08/22 00:03:17;;;;;;;3.83;3.30;;;;;;;;;;5064976;28;20227;-76
2022/08/22 00:05:50;;;;;;;5.20;3.83;;;;;;;;;;5054657;28;20218;-77
2022/08/22 00:08:25;;;;;;;4.03;3.63;;;;;;;;;;5067276;28;20591;-76
2022/08/22 00:10:55;;;;;;;4.80;3.70;;;;;;;;;;5060540;28;20201;-76
2022/08/22 00:13:26;;;;;;;4.40;3.07;;;;;;;;;;5064886;28;20291;-76
2022/08/22 00:15:59;;;;;;;4.37;3.60;;;;;;;;;;5068775;28;20249;-76
2022/08/22 00:18:30;;;;;;;3.83;3.37;;;;;;;;;;5073711;28;20289;-76
2022/08/22 00:21:05;;;;;;;3.90;3.33;;;;;;;;;;5073431;28;20251;-76
2022/08/22 00:23:35;;;;;;;4.53;3.57;;;;;;;;;;5064271;28;20287;-77
2022/08/22 00:26:04;;;;;;;5.00;3.33;;;;;;;;;;5066273;28;20653;-76
2022/08/22 00:28:35;;;;;;;5.00;3.50;;;;;;;;;;5054258;28;20243;-76
2022/08/22 00:31:08;;;;;;;4.17;3.43;;;;;;;;;;5055328;28;20234;-76
2022/08/22 00:33:40;;;;;;;6.60;3.73;;;;;;;;;;5053038;28;20207;-76
2022/08/22 00:36:15;;;;;;;4.20;3.57;;;;;;;;;;5053113;28;20204;-76
2022/08/22 00:38:44;;;;;;;4.70;4.07;;;;;;;;;;5043903;28;20286;-76
2022/08/22 00:41:18;;;;;;;4.43;3.60;;;;;;;;;;5051152;28;20736;-76
2022/08/22 00:44:01;;;;;;;4.43;4.03;;;;;;;;;;5069609;28;20610;-76
2022/08/22 00:46:38;;;;;;;4.33;3.70;;;;;;;;;;5055849;28;20286;-76
2022/08/22 00:49:13;;;;;;;4.23;3.83;;;;;;;;;;5069628;28;20738;-76
2022/08/22 00:51:51;;;;;;;5.50;3.80;;;;;;;;;;5034517;28;20200;-76
2022/08/22 00:54:22;;;;;;;5.83;3.93;;;;;;;;;;5065566;28;20241;-76
2022/08/22 00:56:59;;;;;;;6.00;4.27;;;;;;;;;;5051675;28;20199;-77
2022/08/22 00:59:35;;;;;;;5.80;4.47;;;;;;;;;;5058961;28;20219;-76
2022/08/22 01:02:08;;;;;;;6.00;4.73;;;;;;;;;;5056884;28;20237;-76
2022/08/22 01:04:47;;;;;;;7.10;5.23;;;;;;;;;;5055993;28;20632;-76
2022/08/22 01:07:26;;;;;;;6.53;5.10;;;;;;;;;;5054267;28;20857;-76
2022/08/22 01:10:02;;;;;;;6.47;4.67;;;;;;;;;;5061473;28;20199;-76
2022/08/22 01:12:36;;;;;;;6.43;5.03;;;;;;;;;;5066235;28;20234;-76
2022/08/22 01:15:05;;;;;;;6.27;4.90;;;;;;;;;;5072797;28;20619;-76
2022/08/22 01:17:52;;;;;;;5.93;5.10;;;;;;;;;;5068453;28;20227;-77
2022/08/22 01:20:34;;;;;;;7.13;5.40;;;;;;;;;;5064489;28;20327;-76
2022/08/22 01:23:16;;;;;;;8.20;5.60;;;;;;;;;;5069351;28;20199;-76
2022/08/22 01:26:01;;;;;;;7.97;5.90;;;;;;;;;;5065113;28;20265;-76
2022/08/22 01:28:49;;;;;;;8.37;5.93;;;;;;;;;;5054649;28;20235;-76
2022/08/22 01:31:40;;;;;;;7.37;5.97;;;;;;;;;;5051135;28;20227;-77
2022/08/22 01:34:18;;;;;;;7.63;5.90;;;;;;;;;;5029686;28;20262;-77
2022/08/22 01:36:58;;;;;;;6.90;6.00;;;;;;;;;;5053797;28;20246;-76
2022/08/22 01:39:36;;;;;;;7.53;5.60;;;;;;;;;;5059247;28;20682;-76
2022/08/22 01:42:22;;;;;;;8.57;5.97;;;;;;;;;;5054473;28;20282;-76
2022/08/22 01:45:01;;;;;;;6.77;5.97;;;;;;;;;;5061843;28;20235;-76
2022/08/22 01:47:31;;;;;;;8.90;6.20;;;;;;;;;;5052439;28;20313;-76
2022/08/22 01:50:03;;;;;;;8.88;6.35;;;;;;;;;;5054726;28;20652;-76
2022/08/22 01:52:41;;;;;;;9.10;6.33;;;;;;;;;;5069785;28;20594;-76
2022/08/22 01:55:10;;;;;;;7.63;6.70;;;;;;;;;;5067206;28;20234;-76
2022/08/22 01:57:50;;;;;;;11.60;6.93;;;;;;;;;;5058211;28;20284;-77
2022/08/22 02:00:18;;;;;;;12.00;7.50;;;;;;;;;;5062012;28;20270;-77
2022/08/22 02:02:51;;;;;;;9.23;6.70;;;;;;;;;;5061577;28;20666;-76
2022/08/22 02:05:36;;;;;;;8.53;6.87;;;;;;;;;;5052925;28;20203;-76
2022/08/22 02:08:06;;;;;;;9.40;6.63;;;;;;;;;;5060522;28;20219;-77
2022/08/22 02:10:44;;;;;;;11.03;7.27;;;;;;;;;;5054990;28;20196;-76
2022/08/22 02:13:23;;;;;;;13.17;8.37;;;;;;;;;;5064135;28;20231;-76
2022/08/22 02:15:54;;;;;;;10.07;7.77;;;;;;;;;;5066727;28;20287;-76
2022/08/22 02:18:23;;;;;;;11.97;8.43;;;;;;;;;;5062950;28;20207;-76
2022/08/22 02:21:09;;;;;;;11.70;8.90;;;;;;;;;;5071301;28;20255;-76
2022/08/22 02:23:37;;;;;;;14.47;8.80;;;;;;;;;;5055727;28;20632;-77
2022/08/22 02:26:07;;;;;;;11.53;8.57;;;;;;;;;;5058464;28;20230;-76
2022/08/22 02:28:39;;;;;;;11.20;8.50;;;;;;;;;;5058380;28;20610;-76
2022/08/22 02:31:10;;;;;;;11.37;8.83;;;;;;;;;;5072443;28;20230;-76
2022/08/22 02:33:44;;;;;;;13.63;9.17;;;;;;;;;;5058634;28;20214;-76
2022/08/22 02:36:19;;;;;;;11.87;9.17;;;;;;;;;;5065636;28;20258;-76
2022/08/22 02:38:51;;;;;;;13.20;9.10;;;;;;;;;;5066870;28;20237;-76
2022/08/22 02:41:22;;;;;;;13.30;9.13;;;;;;;;;;5060845;28;20259;-76
2022/08/22 02:43:51;;;;;;;12.17;9.30;;;;;;;;;;5063195;28;20278;-76
2022/08/22 02:46:23;;;;;;;12.77;9.10;;;;;;;;;;5058958;28;20234;-76
2022/08/22 02:48:56;;;;;;;13.57;10.00;;;;;;;;;;5070558;28;20234;-76
2022/08/22 02:51:31;;;;;;;12.17;9.43;;;;;;;;;;5070670;28;20199;-76
2022/08/22 02:54:08;;;;;;;14.30;9.87;;;;;;;;;;5068545;28;20584;-76
2022/08/22 02:56:38;;;;;;;14.70;10.13;;;;;;;;;;5051710;28;20203;-76
2022/08/22 02:59:15;;;;;;;15.00;10.53;;;;;;;;;;5054440;28;20687;-76
2022/08/22 03:01:44;;;;;;;13.60;9.90;;;;;;;;;;5059672;28;20225;-76
2022/08/22 03:04:26;;;;;;;15.60;10.30;;;;;;;;;;5064873;28;20234;-76
2022/08/22 03:07:06;;;;;;;14.00;9.30;;;;;;;;;;5049864;28;20214;-77
2022/08/22 03:09:36;;;;;;;14.67;10.37;;;;;;;;;;5040149;28;20636;-76
2022/08/22 03:12:08;;;;;;;13.57;9.93;;;;;;;;;;5066865;28;20289;-76
2022/08/22 03:14:39;;;;;;;14.77;10.03;;;;;;;;;;5058205;28;20261;-77
2022/08/22 03:17:08;;;;;;;14.35;9.80;;;;;;;;;;5056487;28;20234;-76
2022/08/22 03:19:46;;;;;;;16.00;9.90;;;;;;;;;;5071505;28;20267;-76
2022/08/22 03:22:17;;;;;;;15.67;9.70;;;;;;;;;;5065746;28;20222;-76
2022/08/22 03:24:48;;;;;;;15.37;10.30;;;;;;;;;;5056851;28;20240;-76
2022/08/22 03:27:18;;;;;;;15.48;9.73;;;;;;;;;;5061110;28;20203;-76
2022/08/22 03:29:48;;;;;;;15.77;10.20;;;;;;;;;;5057345;28;20199;-77
2022/08/22 03:32:18;;;;;;;14.30;9.70;;;;;;;;;;5065918;28;20220;-76
2022/08/22 03:34:55;;;;;;;14.90;10.63;;;;;;;;;;5058025;28;20210;-76
2022/08/22 03:37:27;;;;;;;17.80;10.30;;;;;;;;;;5041004;28;20199;-76
2022/08/22 03:40:01;;;;;;;14.47;10.53;;;;;;;;;;5059678;28;20199;-76
2022/08/22 03:42:55;;;;;;;16.43;10.13;;;;;;;;;;5053087;28;20295;-76
2022/08/22 03:45:37;;;;;;;13.23;9.50;;;;;;;;;;5045280;28;20199;-76
2022/08/22 03:48:14;;;;;;;13.93;9.30;;;;;;;;;;5039233;28;20240;-76
2022/08/22 03:50:52;;;;;;;15.20;9.83;;;;;;;;;;5034355;28;20254;-77
2022/08/22 03:53:51;;;;;;;12.93;9.87;;;;;;;;;;5065164;28;20717;-76
2022/08/22 03:56:34;;;;;;;15.90;10.30;;;;;;;;;;5051098;28;20261;-76
2022/08/22 03:59:16;;;;;;;18.07;9.50;;;;;;;;;;5048253;28;20668;-77
2022/08/22 04:01:55;;;;;;;13.67;9.93;;;;;;;;;;5045755;28;20227;-76
2022/08/22 04:04:38;;;;;;;13.70;9.70;;;;;;;;;;5056044;28;20204;-76
2022/08/22 04:07:23;;;;;;;18.97;10.70;;;;;;;;;;5055808;28;20619;-76
2022/08/22 04:10:15;;;;;;;13.70;9.57;;;;;;;;;;5066734;28;20210;-76
2022/08/22 04:12:57;;;;;;;13.47;10.23;;;;;;;;;;5064539;28;20628;-76
2022/08/22 04:15:38;;;;;;;17.17;10.50;;;;;;;;;;5044223;28;20200;-77
2022/08/22 04:18:21;;;;;;;16.20;10.33;;;;;;;;;;5059824;28;20254;-77
2022/08/22 04:21:16;;;;;;;16.37;9.50;;;;;;;;;;5035457;28;20323;-77
2022/08/22 04:23:57;;;;;;;12.57;9.27;;;;;;;;;;5063668;28;20293;-76
2022/08/22 04:26:30;;;;;;;15.13;9.57;;;;;;;;;;5072114;28;20241;-77
2022/08/22 04:28:59;;;;;;;15.80;9.53;;;;;;;;;;5067995;28;20234;-77
2022/08/22 04:31:29;;;;;;;16.70;10.23;;;;;;;;;;5062963;28;20298;-77
2022/08/22 04:34:00;;;;;;;15.50;9.80;;;;;;;;;;5073470;28;20357;-77
2022/08/22 04:36:31;;;;;;;12.50;9.02;;;;;;;;;;5063683;28;20609;-77
2022/08/22 04:39:00;;;;;;;14.10;10.13;;;;;;;;;;5051324;28;20204;-77
2022/08/22 04:41:36;;;;;;;13.85;9.63;;;;;;;;;;5058710;28;20258;-77
2022/08/22 04:44:06;;;;;;;13.27;9.80;;;;;;;;;;5038642;28;20239;-76
2022/08/22 04:46:34;;;;;;;17.67;10.02;;;;;;;;;;5066933;28;20302;-76
2022/08/22 04:49:04;;;;;;;15.75;9.40;;;;;;;;;;5060030;28;20221;-77
2022/08/22 04:51:35;;;;;;;15.43;10.18;;;;;;;;;;5074492;28;20206;-77
2022/08/22 04:54:16;;;;;;;16.38;10.45;;;;;;;;;;5054945;28;20238;-76
2022/08/22 04:56:52;;;;;;;19.07;10.80;;;;;;;;;;5055552;28;20261;-77
2022/08/22 04:59:19;;;;;;;19.50;11.50;;;;;;;;;;5067035;28;20239;-76
2022/08/22 05:01:48;;;;;;;15.32;10.75;;;;;;;;;;5073800;28;20753;-76
2022/08/22 05:04:19;;;;;;;17.87;10.27;;;;;;;;;;5058020;28;20214;-76
2022/08/22 05:06:49;;;;;;;19.30;10.80;;;;;;;;;;5052194;28;20204;-76
2022/08/22 05:09:19;;;;;;;16.52;10.00;;;;;;;;;;5061284;28;20230;-75
2022/08/22 05:11:50;;;;;;;16.50;10.67;;;;;;;;;;5052276;28;20212;-76
2022/08/22 05:14:19;;;;;;;13.77;10.13;;;;;;;;;;5041549;28;20200;-76
2022/08/22 05:16:48;;;;;;;18.10;10.38;;;;;;;;;;5055553;28;20238;-76
2022/08/22 05:19:18;;;;;;;14.43;10.63;;;;;;;;;;5069749;28;20552;-77
2022/08/22 05:21:48;;;;;;;14.53;10.67;;;;;;;;;;5059483;28;20246;-75
2022/08/22 05:24:19;;;;;;;17.02;10.55;;;;;;;;;;5045857;28;20601;-77
2022/08/22 05:26:51;;;;;;;16.93;10.87;;;;;;;;;;5069622;28;20295;-78
2022/08/22 05:29:22;;;;;;;15.20;10.43;;;;;;;;;;5056028;28;20579;-77
2022/08/22 05:31:52;;;;;;;16.92;10.45;;;;;;;;;;5063763;28;20658;-77
2022/08/22 05:34:22;;;;;;;17.63;10.88;;;;;;;;;;5064789;28;20212;-77
2022/08/22 05:36:51;;;;;;;17.25;10.60;;;;;;;;;;5059560;28;20294;-77
2022/08/22 05:39:20;;;;;;;15.63;10.90;;;;;;;;;;5062201;28;20561;-77
2022/08/22 05:41:48;;;;;;;15.00;10.27;;;;;;;;;;5064267;28;20261;-77
2022/08/22 05:44:19;;;;;;;14.35;10.30;;;;;;;;;;5060855;28;20231;-77
2022/08/22 05:46:48;;;;;;;16.45;10.82;;;;;;;;;;5067246;28;20333;-77
2022/08/22 05:49:18;;;;;;;16.33;10.80;;;;;;;;;;5061315;28;20590;-76
2022/08/22 05:51:50;;;;;;;16.58;10.20;;;;;;;;;;5055880;28;20203;-78
2022/08/22 05:54:19;;;;;;;17.08;11.10;;;;;;;;;;5058482;28;20238;-77
2022/08/22 05:56:49;;;;;;;16.87;11.23;;;;;;;;;;5052455;28;20240;-77
2022/08/22 05:59:22;;;;;;;16.80;10.80;;;;;;;;;;5053094;28;20311;-78
2022/08/22 06:01:55;;;;;;;15.38;10.68;;;;;;;;;;5060529;28;20251;-77
2022/08/22 06:04:26;;;;;;;14.52;9.82;;;;;;;;;;5052908;28;20258;-77
2022/08/22 06:06:56;;;;;;;15.65;10.23;;;;;;;;;;5061271;28;20230;-77
2022/08/22 06:09:27;;;;;;;15.68;10.60;;;;;;;;;;5060396;28;20246;-77
2022/08/22 06:11:58;;;;;;;14.23;10.65;;;;;;;;;;5052821;28;20223;-77
2022/08/22 06:14:30;;;;;;;14.52;10.90;;;;;;;;;;5048055;28;20947;-76
2022/08/22 06:17:00;;;;;;;14.75;10.32;;;;;;;;;;5054985;28;20262;-75
2022/08/22 06:19:28;;;;;;;15.38;9.65;;;;;;;;;;5039147;28;20250;-75
2022/08/22 06:21:56;;;;;;;13.68;9.75;;;;;;;;;;5051845;28;20718;-75
2022/08/22 06:24:25;;;;;;;12.93;9.75;;;;;;;;;;5060613;28;20550;-75
2022/08/22 06:26:54;;;;;;;13.85;9.20;;;;;;;;;;5057234;28;20195;-76
2022/08/22 06:29:28;;;;;;;12.93;9.35;;;;;;;;;;5063329;28;20234;-75
2022/08/22 06:31:57;;;;;;;14.32;8.95;;;;;;;;;;5053264;28;20704;-75
2022/08/22 06:34:27;;;;;;;15.55;9.88;;;;;;;;;;5052940;28;20644;-75
2022/08/22 06:36:56;;;;;;;14.00;9.60;;;;;;;;;;5051195;28;20842;-75
2022/08/22 06:39:24;;;;;;;11.43;9.23;;;;;;;;;;5058248;28;20296;-75
2022/08/22 06:41:53;;;;;;;16.55;9.43;;;;;;;;;;5052010;28;20326;-75
2022/08/22 06:44:22;;;;;;;13.50;9.07;;;;;;;;;;5051257;28;20282;-75
2022/08/22 06:46:51;;;;;;;12.25;9.05;;;;;;;;;;5049470;28;20243;-75
2022/08/22 06:49:22;;;;;;;11.75;9.35;;;;;;;;;;5047801;28;20655;-75
2022/08/22 06:51:50;;;;;;;13.05;9.40;;;;;;;;;;5050496;28;20253;-75
2022/08/22 06:54:19;;;;;;;14.40;9.32;;;;;;;;;;5050414;28;20226;-75
2022/08/22 06:56:48;;;;;;;14.77;9.75;;;;;;;;;;5050317;28;20227;-75
2022/08/22 06:59:17;;;;;;;14.88;9.57;;;;;;;;;;5052180;28;20220;-75
2022/08/22 07:01:48;;;;;;;14.38;9.10;;;;;;;;;;5051483;28;20294;-75
2022/08/22 07:04:16;;;;;;;11.77;8.68;;;;;;;;;;5069445;28;20286;-75
2022/08/22 07:06:48;;;;;;;14.63;9.10;;;;;;;;;;5052205;28;20672;-75
2022/08/22 07:09:19;;;;;;;12.77;8.00;;;;;;;;;;5051960;28;20555;-75
2022/08/22 07:11:46;;;;;;;12.88;8.77;;;;;;;;;;5051789;28;20253;-75
2022/08/22 07:14:15;;;;;;;14.60;8.98;;;;;;;;;;5052128;28;20245;-75
2022/08/22 07:16:44;;;;;;;12.73;8.50;;;;;;;;;;5051258;28;20249;-75
2022/08/22 07:19:22;;;;;;;14.20;8.85;;;;;;;;;;5069450;28;20237;-75
2022/08/22 07:21:50;;;;;;;13.45;8.85;;;;;;;;;;5071416;28;20313;-75
2022/08/22 07:24:20;;;;;;;14.93;9.20;;;;;;;;;;5057052;28;20249;-75
2022/08/22 07:26:53;;;;;;;12.77;8.70;;;;;;;;;;5051458;28;20227;-75
2022/08/22 07:29:26;;;;;;;11.40;8.50;;;;;;;;;;5046167;28;20227;-75
2022/08/22 07:31:56;;;;;;;12.25;8.55;;;;;;;;;;5050279;28;20199;-75
2022/08/22 07:34:39;;;;;;;13.65;8.18;;;;;;;;;;5048030;28;20196;-75
2022/08/22 07:37:11;;;;;;;12.90;8.55;;;;;;;;;;5048708;28;20261;-75
2022/08/22 07:39:42;;;;;;;12.07;7.95;;;;;;;;;;5050945;28;20286;-75
2022/08/22 07:42:12;;;;;;;11.95;7.60;;;;;;;;;;5055866;28;20671;-75
2022/08/22 07:44:49;;;;;;;8.85;6.72;;;;;;;;;;5055474;28;20242;-75
2022/08/22 07:47:17;;;;;;;10.35;7.00;;;;;;;;;;5055208;28;20322;-75
2022/08/22 07:49:50;;;;;;;10.13;7.28;;;;;;;;;;5056359;28;20215;-75
2022/08/22 07:52:19;;;;;;;10.90;6.72;;;;;;;;;;5057442;28;20620;-75
2022/08/22 07:54:49;;;;;;;10.68;6.68;;;;;;;;;;5074540;28;20283;-73
2022/08/22 07:57:18;;;;;;;9.85;6.78;;;;;;;;;;5074822;28;20203;-75
2022/08/22 07:59:48;;;;;;;11.18;6.70;;;;;;;;;;5075167;28;20206;-75
2022/08/22 08:02:16;;;;;;;8.60;6.15;;;;;;;;;;5074348;28;20222;-75
2022/08/22 08:04:43;;;;;;;8.70;6.82;;;;;;;;;;5075225;28;20250;-75
2022/08/22 08:07:12;;;;;;;9.02;6.38;;;;;;;;;;5072794;28;20245;-75
2022/08/22 08:09:43;;;;;;;8.40;6.43;;;;;;;;;;5055542;28;20620;-75
2022/08/22 08:12:11;;;;;;;8.15;6.32;;;;;;;;;;5059497;28;20542;-75
2022/08/22 08:14:40;;;;;;;7.78;5.88;;;;;;;;;;5056112;28;20203;-75
2022/08/22 08:17:09;;;;;;;11.38;7.13;;;;;;;;;;5050558;28;20239;-75
2022/08/22 08:19:39;;;;;;;7.95;5.80;;;;;;;;;;5074712;28;20211;-75
2022/08/22 08:22:06;;;;;;;7.55;5.78;;;;;;;;;;5058270;28;20307;-75
2022/08/22 08:24:36;;;;;;;7.18;5.15;;;;;;;;;;5054680;28;20237;-75
2022/08/22 08:29:54;;;;;;;5.45;4.13;;;;;;;;;;5070211;28;20217;-75
2022/08/22 08:32:22;;;;;;;5.78;4.45;;;;;;;;;;5062938;28;20709;-75
2022/08/22 08:34:51;;;;;;;5.75;4.93;;;;;;;;;;5061942;28;20295;-75
2022/08/22 08:37:23;;;;;;;6.25;5.18;;;;;;;;;;5068414;28;20238;-75
2022/08/22 08:39:52;;;;;;;9.00;5.72;;;;;;;;;;5074288;28;20255;-78
2022/08/22 08:45:43;;;;;;;7.88;6.97;;;;;;;;;;5074446;28;20197;-78
2022/08/22 08:48:31;;;;;;;9.73;7.53;;;;;;;;;;5062655;28;20796;-77
2022/08/22 08:51:08;;;;;;;8.63;7.15;;;;;;;;;;5052282;28;20628;-78
2022/08/22 08:53:51;;;;;;;7.72;6.43;;;;;;;;;;5073702;28;20230;-77
2022/08/22 08:56:23;;;;;;;7.40;5.85;;;;;;;;;;5074561;28;20202;-77
2022/08/22 08:58:55;;;;;;;5.82;5.20;;;;;;;;;;5073093;28;20254;-77
2022/08/22 09:01:36;;;;;;;9.88;6.13;;;;;;;;;;5072206;28;20682;-77
2022/08/22 09:04:19;;;;;;;8.60;6.47;;;;;;;;;;5062492;28;20349;-77
2022/08/22 09:06:53;;;;;;;11.40;6.97;;;;;;;;;;5065742;28;20281;-78
2022/08/22 09:09:27;;;;;;;8.43;6.57;;;;;;;;;;5054534;28;20623;-78
2022/08/22 09:12:07;;;;;;;9.50;6.35;;;;;;;;;;5054108;28;20230;-78
2022/08/22 09:14:45;;;;;;;10.13;7.43;;;;;;;;;;5071270;28;20226;-78
2022/08/22 09:17:26;;;;;;;9.52;7.00;;;;;;;;;;5073554;28;20237;-78
2022/08/22 09:20:13;;;;;;;8.23;6.30;;;;;;;;;;5070016;28;20199;-77
2022/08/22 09:22:55;;;;;;;6.75;4.88;;;;;;;;;;5065239;28;20706;-78
2022/08/22 09:25:24;;;;;;;5.95;5.20;;;;;;;;;;5069780;28;20206;-78
2022/08/22 09:27:56;;;;;;;6.63;5.20;;;;;;;;;;5070137;28;20717;-78
2022/08/22 09:30:26;;;;;;;7.47;6.10;;;;;;;;;;5054881;28;20238;-78
2022/08/22 09:32:56;;;;;;;7.47;5.53;;;;;;;;;;5064366;28;20645;-78
2022/08/22 09:35:26;;;;;;;7.20;4.57;;;;;;;;;;5068011;28;20286;-78
2022/08/22 09:38:18;;;;;;;6.47;3.78;;;;;;;;;;5068325;28;20279;-79
2022/08/22 09:40:46;;;;;;;5.13;3.78;;;;;;;;;;5053465;28;20288;-78
2022/08/22 09:43:15;;;;;;;3.70;3.08;;;;;;;;;;5053109;28;20255;-78
2022/08/22 09:45:47;;;;;;;4.18;3.40;;;;;;;;;;5067779;28;20237;-78
2022/08/22 09:48:29;;;;;;;4.50;4.10;;;;;;;;;;5044872;28;20780;-78
2022/08/22 09:51:02;;;;;;;5.97;4.75;;;;;;;;;;5053108;28;20278;-78
2022/08/22 09:53:43;;;;;;;5.55;4.85;;;;;;;;;;5056216;28;20278;-78
2022/08/22 09:56:12;;;;;;;5.88;5.28;;;;;;;;;;5052630;28;20675;-78
2022/08/22 09:58:43;;;;;;;4.63;4.22;;;;;;;;;;5052845;28;20298;-78
2022/08/22 10:01:22;;;;;;;6.68;4.40;;;;;;;;;;5052434;28;20675;-78
2022/08/22 10:04:08;;;;;;;4.03;3.50;;;;;;;;;;5057433;28;20250;-78
2022/08/22 10:06:42;;;;;;;3.58;3.28;;;;;;;;;;5052436;28;20287;-78
2022/08/22 10:09:12;;;;;;;3.58;3.25;;;;;;;;;;5052911;28;20235;-78
2022/08/22 10:11:41;;;;;;;3.45;3.15;;;;;;;;;;5052927;28;20238;-78
2022/08/22 10:14:10;;;;;;;3.20;2.75;;;;;;;;;;5068048;28;20274;-78
2022/08/22 10:16:54;;;;;;;3.00;2.70;;;;;;;;;;5071327;28;20278;-78
2022/08/22 10:19:25;;;;;;;2.90;2.47;;;;;;;;;;5051778;28;20230;-78
2022/08/22 10:22:07;;;;;;;5.18;3.03;;;;;;;;;;5053624;28;20206;-75
2022/08/22 10:24:39;;;;;;;3.72;3.38;;;;;;;;;;5050731;28;20262;-75
2022/08/22 10:27:12;;;;;;;3.90;3.22;;;;;;;;;;5050911;28;20231;-75
2022/08/22 10:29:46;;;;;;;4.30;3.17;;;;;;;;;;5051391;28;20207;-75
2022/08/22 10:32:18;;;;;;;4.30;3.13;;;;;;;;;;5050871;28;20687;-75
2022/08/22 10:34:48;;;;;;;3.30;2.92;;;;;;;;;;5051009;28;20282;-75
2022/08/22 10:37:19;;;;;;;3.70;2.95;;;;;;;;;;5051409;28;20283;-74
2022/08/22 10:39:52;;;;;;;7.07;3.30;;;;;;;;;;5052185;28;20279;-75
2022/08/22 10:42:25;;;;;;;3.00;2.45;;;;;;;;;;5049407;28;20235;-74
2022/08/22 10:45:00;;;;;;;3.65;2.10;;;;;;;;;;5051020;28;20744;-74
2022/08/22 10:47:34;;;;;;;2.58;2.03;;;;;;;;;;5050601;28;20318;-75
2022/08/22 10:50:04;;;;;;;1.98;1.52;;;;;;;;;;5049405;28;20230;-74
2022/08/22 10:52:33;;;;;;;1.50;1.40;;;;;;;;;;5051703;28;20299;-74
2022/08/22 10:55:01;;;;;;;1.30;1.20;;;;;;;;;;5062175;28;20249;-74
2022/08/22 10:57:38;;;;;;;1.55;1.45;;;;;;;;;;5062847;28;20222;-75
2022/08/22 11:00:10;;;;;;;2.10;1.10;;;;;;;;;;5065808;28;20231;-75
2022/08/22 11:02:41;;;;;;;1.02;1.00;;;;;;;;;;5068491;28;20202;-75
2022/08/22 11:05:24;;;;;;;1.45;1.10;;;;;;;;;;4687120;28;10000578;-75
2022/08/22 11:07:57;;;;;;;1.58;1.05;;;;;;;;;;5045973;28;20208;-75
2022/08/22 11:10:33;;;;;;;0.77;0.77;;;;;;;;;;5050165;28;20200;-73
2022/08/22 11:13:10;;;;;;;1.20;0.82;;;;;;;;;;5048847;28;20614;-75
2022/08/22 11:16:02;;;;;;;0.80;0.80;;;;;;;;;;5038296;28;20242;-75
2022/08/22 11:18:37;;;;;;;1.35;0.95;;;;;;;;;;5039362;28;20210;-75
2022/08/22 11:21:05;;;;;;;1.65;0.70;;;;;;;;;;5053169;28;20845;-74
2022/08/22 11:23:41;;;;;;;1.45;1.05;;;;;;;;;;5059289;28;20246;-75
2022/08/22 11:26:17;;;;;;;0.95;0.80;;;;;;;;;;5058808;28;20893;-75
2022/08/22 11:28:58;;;;;;;2.15;0.90;;;;;;;;;;5056512;28;20226;-75
2022/08/22 11:34:37;;;;;;;1.25;0.88;;;;;;;;;;5056946;28;20247;-74
2022/08/22 11:37:07;;;;;;;2.00;0.80;;;;;;;;;;5058149;28;20286;-74
2022/08/22 11:39:39;;;;;;;1.25;0.70;;;;;;;;;;5052605;28;20295;-75
2022/08/22 11:42:09;;;;;;;1.10;0.80;;;;;;;;;;5056166;28;20231;-75
2022/08/22 11:44:38;;;;;;;0.85;0.77;;;;;;;;;;5057070;28;20220;-75
2022/08/22 11:47:09;;;;;;;0.75;0.75;;;;;;;;;;5057232;28;20263;-74
2022/08/22 11:49:49;;;;;;;0.80;0.80;;;;;;;;;;5051083;28;20283;-75
2022/08/22 11:52:28;;;;;;;1.20;1.00;;;;;;;;;;5051391;28;20196;-74
2022/08/22 11:55:11;;;;;;;1.17;1.02;;;;;;;;;;5052204;28;20188;-75
2022/08/22 11:57:39;;;;;;;1.50;1.40;;;;;;;;;;5055561;28;20223;-74
2022/08/22 12:00:16;;;;;;;1.52;1.35;;;;;;;;;;5056135;28;20695;-78
2022/08/22 12:02:48;;;;;;;1.67;1.10;;;;;;;;;;5059367;28;20200;-78
2022/08/22 12:05:20;;;;;;;2.63;1.10;;;;;;;;;;5062720;28;20230;-78
2022/08/22 12:07:53;;;;;;;1.80;1.48;;;;;;;;;;5064800;28;20282;-78
2022/08/22 12:10:22;;;;;;;1.98;1.08;;;;;;;;;;5063760;28;20199;-78
2022/08/22 12:12:54;;;;;;;0.82;0.70;;;;;;;;;;5055265;28;20238;-78
2022/08/22 12:15:23;;;;;;;1.33;0.70;;;;;;;;;;5055142;28;20290;-78
2022/08/22 12:18:05;;;;;;;0.55;0.55;;;;;;;;;;5055445;28;20658;-78
2022/08/22 12:20:45;;;;;;;0.60;0.60;;;;;;;;;;5055025;28;20231;-79
2022/08/22 12:23:29;;;;;;;0.95;0.50;;;;;;;;;;5054416;28;20251;-78
2022/08/22 12:26:06;;;;;;;0.82;0.80;;;;;;;;;;5055460;28;20227;-79
2022/08/22 12:28:38;;;;;;;1.20;0.85;;;;;;;;;;5053839;28;20235;-79
2022/08/22 12:31:10;;;;;;;1.00;0.90;;;;;;;;;;5055225;28;20200;-79
2022/08/22 12:33:44;;;;;;;1.17;0.80;;;;;;;;;;5034847;28;20197;-77
2022/08/22 12:36:23;;;;;;;2.55;0.80;;;;;;;;;;5047971;28;20231;-79
2022/08/22 12:38:59;;;;;;;1.10;0.88;;;;;;;;;;5072898;28;20226;-78
2022/08/22 12:41:43;;;;;;;1.05;0.98;;;;;;;;;;5073310;28;20226;-79
2022/08/22 12:44:18;;;;;;;1.67;0.90;;;;;;;;;;5054332;28;20308;-78
2022/08/22 12:46:52;;;;;;;1.00;0.90;;;;;;;;;;5054922;28;20310;-79
2022/08/22 12:49:27;;;;;;;0.90;0.80;;;;;;;;;;5058748;28;20231;-78
2022/08/22 12:52:01;;;;;;;1.15;0.90;;;;;;;;;;5047500;28;20206;-78
2022/08/22 12:54:43;;;;;;;1.27;0.90;;;;;;;;;;5064242;28;20222;-78
2022/08/22 12:57:16;;;;;;;0.80;0.80;;;;;;;;;;5051661;28;20291;-79
2022/08/22 12:59:44;;;;;;;1.88;0.82;;;;;;;;;;5058244;28;20581;-79
2022/08/22 13:02:13;;;;;;;1.35;0.98;;;;;;;;;;5062674;28;20234;-78
2022/08/22 13:04:44;;;;;;;1.45;0.70;;;;;;;;;;5056506;28;20306;-78
2022/08/22 13:07:18;;;;;;;1.08;0.82;;;;;;;;;;5055566;28;20243;-78
2022/08/22 13:09:49;;;;;;;2.15;0.70;;;;;;;;;;5046145;28;20231;-78
2022/08/22 13:12:19;;;;;;;1.23;0.70;;;;;;;;;;5059588;28;20208;-78
2022/08/22 13:14:48;;;;;;;1.15;0.80;;;;;;;;;;5058287;28;20235;-78
2022/08/22 13:17:17;;;;;;;1.30;1.00;;;;;;;;;;5060137;28;20246;-78
2022/08/22 13:19:49;;;;;;;1.00;0.90;;;;;;;;;;5056030;28;20253;-78
2022/08/22 13:22:19;;;;;;;0.80;0.80;;;;;;;;;;5061411;28;20341;-78
2022/08/22 13:24:48;;;;;;;1.20;0.80;;;;;;;;;;5064037;28;20251;-78
2022/08/22 13:27:20;;;;;;;0.60;0.60;;;;;;;;;;5053195;28;20286;-78
2022/08/22 13:29:49;;;;;;;2.17;0.60;;;;;;;;;;5051013;28;20229;-79
2022/08/22 13:32:20;;;;;;;0.80;0.60;;;;;;;;;;5062371;28;20228;-78
2022/08/22 13:34:51;;;;;;;0.85;0.75;;;;;;;;;;5058109;28;20215;-79
2022/08/22 13:37:22;;;;;;;0.70;0.60;;;;;;;;;;5063779;28;20207;-79
2022/08/22 13:39:49;;;;;;;0.77;0.60;;;;;;;;;;5062336;28;20196;-78
2022/08/22 13:42:20;;;;;;;1.90;0.82;;;;;;;;;;5063637;28;20290;-78
2022/08/22 13:44:49;;;;;;;0.70;0.70;;;;;;;;;;5053734;28;20306;-79
2022/08/22 13:47:19;;;;;;;2.75;0.70;;;;;;;;;;5062551;28;20263;-79
2022/08/22 13:49:49;;;;;;;1.67;0.73;;;;;;;;;;5064849;28;20228;-78
2022/08/22 13:52:22;;;;;;;0.80;0.63;;;;;;;;;;5065384;28;20234;-78
2022/08/22 13:54:53;;;;;;;1.23;0.68;;;;;;;;;;5055754;28;20192;-78
2022/08/22 13:57:25;;;;;;;0.65;0.65;;;;;;;;;;5062253;28;20239;-78
2022/08/22 13:59:54;;;;;;;0.90;0.70;;;;;;;;;;5060351;28;20638;-78
2022/08/22 14:02:42;;;;;;;0.90;0.47;;;;;;;;;;5058821;28;20606;-78
2022/08/22 14:05:11;;;;;;;0.47;0.47;;;;;;;;;;5055995;28;20259;-78
2022/08/22 14:07:41;;;;;;;1.05;0.52;;;;;;;;;;5061719;28;20231;-79
2022/08/22 14:10:10;;;;;;;0.77;0.60;;;;;;;;;;5057581;28;20267;-79
2022/08/22 14:12:48;;;;;;;0.85;0.60;;;;;;;;;;5067542;28;20231;-79
2022/08/22 14:15:18;;;;;;;3.47;1.00;;;;;;;;;;5062539;28;20288;-79
2022/08/22 14:17:47;;;;;;;0.80;0.80;;;;;;;;;;5057059;28;20261;-78
2022/08/22 14:20:16;;;;;;;1.40;0.80;;;;;;;;;;5072674;28;20226;-79
2022/08/22 14:22:50;;;;;;;1.30;0.50;;;;;;;;;;5064389;28;20230;-78
2022/08/22 14:25:19;;;;;;;1.25;0.95;;;;;;;;;;5049099;28;20246;-78
2022/08/22 14:27:57;;;;;;;0.50;0.50;;;;;;;;;;5066428;28;20231;-78
2022/08/22 14:30:26;;;;;;;1.25;0.60;;;;;;;;;;5063314;28;20205;-79
2022/08/22 14:32:55;;;;;;;0.70;0.70;;;;;;;;;;5064306;28;20227;-78
2022/08/22 14:35:24;;;;;;;0.88;0.70;;;;;;;;;;5064255;28;20640;-78
2022/08/22 14:37:53;;;;;;;0.90;0.70;;;;;;;;;;5062744;28;20227;-78
2022/08/22 14:40:22;;;;;;;1.13;0.85;;;;;;;;;;5056917;28;20287;-78
2022/08/22 14:42:53;;;;;;;1.38;0.60;;;;;;;;;;5061253;28;20227;-76
2022/08/22 14:45:22;;;;;;;0.82;0.70;;;;;;;;;;5057143;28;20218;-79
2022/08/22 14:47:53;;;;;;;1.70;0.90;;;;;;;;;;5065828;28;20289;-79
2022/08/22 14:50:38;;;;;;;0.82;0.73;;;;;;;;;;5054297;28;20211;-78
2022/08/22 14:53:07;;;;;;;0.68;0.68;;;;;;;;;;5057580;28;20204;-78
2022/08/22 14:55:34;;;;;;;0.85;0.70;;;;;;;;;;5049124;28;20652;-78
2022/08/22 14:58:05;;;;;;;0.75;0.73;;;;;;;;;;5059152;28;20306;-78
2022/08/22 15:00:34;;;;;;;1.38;0.70;;;;;;;;;;5057138;28;20202;-78
2022/08/22 15:03:09;;;;;;;1.10;0.63;;;;;;;;;;5062340;28;20202;-78
2022/08/22 15:05:45;;;;;;;1.20;0.80;;;;;;;;;;5051254;28;20578;-78
2022/08/22 15:08:12;;;;;;;0.98;0.75;;;;;;;;;;5051615;28;20253;-78
2022/08/22 15:10:40;;;;;;;0.70;0.70;;;;;;;;;;5058720;28;20203;-78
2022/08/22 15:13:09;;;;;;;1.80;0.65;;;;;;;;;;5063605;28;20221;-78
2022/08/22 15:15:38;;;;;;;0.88;0.70;;;;;;;;;;5051488;28;20227;-78
2022/08/22 15:18:14;;;;;;;0.98;0.70;;;;;;;;;;5058959;28;20679;-78
2022/08/22 15:20:41;;;;;;;1.58;0.60;;;;;;;;;;5063429;28;20374;-78